createdAt,value
2022-09-14T00:00:42.966Z,5.63
2022-09-14T00:03:06.499Z,4.75
2022-09-14T00:05:30.057Z,7.35
2022-09-14T00:07:53.562Z,8.10
2022-09-14T00:10:23.342Z,6.95
2022-09-14T00:12:46.827Z,4.53
2022-09-14T00:15:11.812Z,5.60
2022-09-14T00:17:37.101Z,7.88
2022-09-14T00:20:02.325Z,4.60
2022-09-14T00:22:25.917Z,5.25
2022-09-14T00:24:49.333Z,5.32
2022-09-14T00:27:12.754Z,7.03
2022-09-14T00:29:36.226Z,8.15
2022-09-14T00:32:00.117Z,5.38
2022-09-14T00:34:25.576Z,7.68
2022-09-14T00:36:52.543Z,4.85
2022-09-14T00:39:17.356Z,7.22
2022-09-14T00:41:44.272Z,8.65
2022-09-14T00:44:47.697Z,7.47
2022-09-14T00:47:13.519Z,6.55
2022-09-14T00:49:41.851Z,4.65
2022-09-14T00:52:10.509Z,5.25
2022-09-14T00:54:34.587Z,5.60
2022-09-14T00:57:00.628Z,5.80
2022-09-14T00:59:28.728Z,7.03
2022-09-14T01:01:53.198Z,7.68
2022-09-14T01:04:17.261Z,7.60
2022-09-14T01:06:50.078Z,5.50
2022-09-14T01:09:27.014Z,7.53
2022-09-14T01:12:11.773Z,6.10
2022-09-14T01:14:45.411Z,9.15
2022-09-14T01:17:13.728Z,8.40
2022-09-14T01:20:05.414Z,4.50
2022-09-14T01:22:39.346Z,5.68
2022-09-14T01:25:16.421Z,6.70
2022-09-14T01:27:44.143Z,7.00
2022-09-14T01:30:11.478Z,5.97
2022-09-14T01:32:41.140Z,8.13
2022-09-14T01:35:15.912Z,10.32
2022-09-14T01:37:44.186Z,14.70
2022-09-14T01:40:16.267Z,8.85
2022-09-14T01:42:44.250Z,7.32
2022-09-14T01:45:14.404Z,11.13
2022-09-14T01:47:43.287Z,8.80
2022-09-14T01:50:12.167Z,8.93
2022-09-14T01:52:43.687Z,9.30
2022-09-14T01:55:13.841Z,9.35
2022-09-14T01:57:45.105Z,11.45
2022-09-14T02:00:12.599Z,10.93
2022-09-14T02:02:41.641Z,12.57
2022-09-14T02:05:10.399Z,9.50
2022-09-14T02:07:34.530Z,11.75
2022-09-14T02:09:59.176Z,13.63
2022-09-14T02:12:23.679Z,10.30
2022-09-14T02:14:48.882Z,6.82
2022-09-14T02:17:12.687Z,7.90
2022-09-14T02:19:42.165Z,7.75
2022-09-14T02:22:05.711Z,10.68
2022-09-14T02:24:30.144Z,6.30
2022-09-14T02:26:55.195Z,6.75
2022-09-14T02:29:18.899Z,8.75
2022-09-14T02:32:00.888Z,13.48
2022-09-14T02:34:35.626Z,6.55
2022-09-14T02:37:06.555Z,8.13
2022-09-14T02:39:41.826Z,10.80
2022-09-14T02:42:18.200Z,8.38
2022-09-14T02:44:54.242Z,9.40
2022-09-14T02:47:24.434Z,10.00
2022-09-14T02:50:03.930Z,7.90
2022-09-14T02:52:36.434Z,10.40
2022-09-14T02:55:07.566Z,11.65
2022-09-14T02:57:31.131Z,10.90
2022-09-14T02:59:55.237Z,11.18
2022-09-14T03:02:20.298Z,7.07
2022-09-14T03:04:43.841Z,9.75
2022-09-14T03:07:07.262Z,5.35
2022-09-14T03:09:30.738Z,8.95
2022-09-14T03:11:54.205Z,9.13
2022-09-14T03:14:17.731Z,8.40
2022-09-14T03:16:41.249Z,10.30
2022-09-14T03:19:06.911Z,9.38
2022-09-14T03:21:30.419Z,11.05
2022-09-14T03:23:56.999Z,8.80
2022-09-14T03:26:24.065Z,8.20
2022-09-14T03:28:52.491Z,9.88
2022-09-14T03:31:16.148Z,7.35
2022-09-14T03:33:40.726Z,9.43
2022-09-14T03:36:14.766Z,6.55
2022-09-14T03:38:38.350Z,9.18
2022-09-14T03:41:01.778Z,8.43
2022-09-14T03:43:26.151Z,8.38
2022-09-14T03:45:49.566Z,8.73
2022-09-14T03:48:15.452Z,7.03
2022-09-14T03:50:40.217Z,11.45
2022-09-14T03:53:05.527Z,5.70
2022-09-14T03:55:29.092Z,7.50
2022-09-14T03:57:55.468Z,10.20
2022-09-14T04:00:19.497Z,11.50
2022-09-14T04:02:43.055Z,8.75
2022-09-14T04:05:07.350Z,9.93
2022-09-14T04:07:30.847Z,8.80
2022-09-14T04:10:02.669Z,6.50
2022-09-14T04:12:26.406Z,9.13
2022-09-14T04:14:49.887Z,8.93
2022-09-14T04:17:13.593Z,9.23
2022-09-14T04:19:38.596Z,9.35
2022-09-14T04:22:02.131Z,8.45
2022-09-14T04:24:30.045Z,11.38
2022-09-14T04:26:58.652Z,8.98
2022-09-14T04:29:22.173Z,9.27
2022-09-14T04:31:45.611Z,9.52
2022-09-14T04:34:09.065Z,12.65
2022-09-14T04:36:32.671Z,11.93
2022-09-14T04:38:58.249Z,7.45
2022-09-14T04:41:23.273Z,8.27
2022-09-14T04:43:50.553Z,9.45
2022-09-14T04:46:16.808Z,8.82
2022-09-14T04:48:40.563Z,7.88
2022-09-14T04:51:04.879Z,8.38
2022-09-14T04:53:28.300Z,8.77
2022-09-14T04:55:51.897Z,9.93
2022-09-14T04:58:15.405Z,14.90
2022-09-14T05:00:41.033Z,6.90
2022-09-14T05:03:06.070Z,12.25
2022-09-14T05:05:29.518Z,9.57
2022-09-14T05:07:52.935Z,10.90
2022-09-14T05:10:17.011Z,15.32
2022-09-14T05:12:40.394Z,8.60
2022-09-14T05:15:08.795Z,12.77
2022-09-14T05:17:35.508Z,11.63
2022-09-14T05:19:59.011Z,9.95
2022-09-14T05:22:22.652Z,11.73
2022-09-14T05:24:46.108Z,9.45
2022-09-14T05:27:09.757Z,9.25
2022-09-14T05:29:33.274Z,9.85
2022-09-14T05:31:57.371Z,8.98
2022-09-14T05:34:22.397Z,10.68
2022-09-14T05:36:45.796Z,8.27
2022-09-14T05:39:10.335Z,8.98
2022-09-14T05:41:33.828Z,11.73
2022-09-14T05:43:57.237Z,11.23
2022-09-14T05:46:21.287Z,9.30
2022-09-14T05:48:45.360Z,9.65
2022-09-14T05:51:14.062Z,8.65
2022-09-14T05:53:38.038Z,10.63
2022-09-14T05:56:03.169Z,12.32
2022-09-14T05:58:27.764Z,8.90
2022-09-14T06:00:51.648Z,8.02
2022-09-14T06:03:15.129Z,10.20
2022-09-14T06:05:38.672Z,11.30
2022-09-14T06:08:05.232Z,8.50
2022-09-14T06:10:28.677Z,11.80
2022-09-14T06:12:55.379Z,10.10
2022-09-14T06:15:19.154Z,11.85
2022-09-14T06:17:42.588Z,10.48
2022-09-14T06:20:08.415Z,10.32
2022-09-14T06:22:33.270Z,15.93
2022-09-14T06:24:58.096Z,8.75
2022-09-14T06:27:28.364Z,11.63
2022-09-14T06:29:53.863Z,8.80
2022-09-14T06:32:17.341Z,10.20
2022-09-14T06:34:40.978Z,9.13
2022-09-14T06:37:04.569Z,10.27
2022-09-14T06:39:28.332Z,8.93
2022-09-14T06:41:53.159Z,7.75
2022-09-14T06:44:16.624Z,8.98
2022-09-14T06:46:40.868Z,9.20
2022-09-14T06:49:10.141Z,10.43
2022-09-14T06:51:36.437Z,9.88
2022-09-14T06:54:01.286Z,12.80
2022-09-14T06:56:24.708Z,13.52
2022-09-14T06:58:49.966Z,7.03
2022-09-14T07:01:15.937Z,10.30
2022-09-14T07:03:40.639Z,10.20
2022-09-14T07:06:06.318Z,8.48
2022-09-14T07:08:30.474Z,6.82
2022-09-14T07:10:58.901Z,8.48
2022-09-14T07:13:22.500Z,9.13
2022-09-14T07:15:52.199Z,7.28
2022-09-14T07:18:17.400Z,7.32
2022-09-14T07:20:40.947Z,12.82
2022-09-14T07:23:04.340Z,11.38
2022-09-14T07:25:28.078Z,10.80
2022-09-14T07:27:51.758Z,11.55
2022-09-14T07:30:15.837Z,11.05
2022-09-14T07:32:40.683Z,8.95
2022-09-14T07:35:05.235Z,11.57
2022-09-14T07:37:31.130Z,10.48
2022-09-14T07:39:54.578Z,9.57
2022-09-14T07:42:18.185Z,9.50
2022-09-14T07:44:41.860Z,8.68
2022-09-14T07:47:05.693Z,9.65
2022-09-14T07:49:31.159Z,10.15
2022-09-14T07:51:54.960Z,8.43
2022-09-14T07:54:20.525Z,10.68
2022-09-14T07:56:45.507Z,7.75
2022-09-14T07:59:34.622Z,10.80
2022-09-14T08:01:52.834Z,8.77
2022-09-14T08:04:16.584Z,9.90
2022-09-14T08:06:42.246Z,12.77
2022-09-14T08:09:09.545Z,11.25
2022-09-14T08:11:34.900Z,9.32
2022-09-14T08:14:01.217Z,12.32
2022-09-14T08:16:26.626Z,10.90
2022-09-14T08:18:56.496Z,10.65
2022-09-14T08:21:20.245Z,9.95
2022-09-14T08:23:45.961Z,11.27
2022-09-14T08:26:12.528Z,9.13
2022-09-14T08:28:37.087Z,10.82
2022-09-14T08:31:06.071Z,6.65
2022-09-14T08:33:29.700Z,9.07
2022-09-14T08:35:57.898Z,9.52
2022-09-14T08:38:21.822Z,7.60
2022-09-14T08:40:47.571Z,7.65
2022-09-14T08:43:13.462Z,6.40
2022-09-14T08:45:36.975Z,6.68
2022-09-14T08:48:00.747Z,9.13
2022-09-14T08:50:25.628Z,9.38
2022-09-14T08:52:52.933Z,8.45
2022-09-14T08:55:28.669Z,7.80
2022-09-14T08:58:00.922Z,6.32
2022-09-14T09:00:30.840Z,5.93
2022-09-14T09:03:29.273Z,10.48
2022-09-14T09:06:01.710Z,8.90
2022-09-14T09:08:34.519Z,6.75
2022-09-14T09:11:01.791Z,7.97
2022-09-14T09:13:34.710Z,4.75
2022-09-14T09:16:01.794Z,7.53
2022-09-14T09:18:37.586Z,7.22
2022-09-14T09:21:06.877Z,6.80
2022-09-14T09:23:33.201Z,7.47
2022-09-14T09:26:01.850Z,6.65
2022-09-14T09:28:29.835Z,7.85
2022-09-14T09:30:54.628Z,6.35
2022-09-14T09:33:29.378Z,11.70
2022-09-14T09:36:09.203Z,9.40
2022-09-14T09:38:32.786Z,9.43
2022-09-14T09:41:01.263Z,9.07
2022-09-14T09:43:47.842Z,15.43
2022-09-14T09:46:10.210Z,9.48
2022-09-14T09:48:41.043Z,9.98
2022-09-14T09:51:11.438Z,9.27
2022-09-14T09:53:48.024Z,13.25
2022-09-14T09:56:20.146Z,14.45
2022-09-14T09:58:45.073Z,9.57
2022-09-14T10:01:21.219Z,11.38
2022-09-14T10:03:51.435Z,10.05
2022-09-14T10:06:15.361Z,7.30
2022-09-14T10:08:45.031Z,7.13
2022-09-14T10:11:32.318Z,6.70
2022-09-14T10:13:57.868Z,5.20
2022-09-14T10:16:22.320Z,3.70
2022-09-14T10:18:49.249Z,5.78
2022-09-14T10:21:20.034Z,5.15
2022-09-14T10:23:44.410Z,5.90
2022-09-14T10:26:29.228Z,6.63
2022-09-14T10:28:53.697Z,5.03
2022-09-14T10:31:27.768Z,7.70
2022-09-14T10:33:54.761Z,7.32
2022-09-14T10:36:25.601Z,6.03
2022-09-14T10:38:53.164Z,4.88
2022-09-14T10:41:27.991Z,7.63
2022-09-14T10:44:45.088Z,9.68
2022-09-14T10:47:39.451Z,7.95
2022-09-14T10:50:24.290Z,7.85
2022-09-14T10:52:58.565Z,8.90
2022-09-14T10:55:34.429Z,9.52
2022-09-14T10:58:20.201Z,8.07
2022-09-14T11:01:01.113Z,10.43
2022-09-14T11:03:46.120Z,7.72
2022-09-14T11:06:21.830Z,8.27
2022-09-14T11:08:50.942Z,4.95
2022-09-14T11:11:34.051Z,4.93
2022-09-14T11:14:21.394Z,3.50
2022-09-14T11:17:08.298Z,2.88
2022-09-14T11:19:48.028Z,2.47
2022-09-14T11:22:17.900Z,4.07
2022-09-14T11:24:46.174Z,3.22
2022-09-14T11:27:19.824Z,5.82
2022-09-14T11:29:51.075Z,5.80
2022-09-14T11:32:22.463Z,7.20
2022-09-14T11:34:55.014Z,4.65
2022-09-14T11:37:22.491Z,5.38
2022-09-14T11:39:50.848Z,4.93
2022-09-14T11:42:21.350Z,3.78
2022-09-14T11:44:47.132Z,3.42
2022-09-14T11:47:15.269Z,2.00
2022-09-14T11:49:56.144Z,5.18
2022-09-14T11:52:23.275Z,3.10
2022-09-14T11:54:47.126Z,4.03
2022-09-14T11:57:17.874Z,3.25
2022-09-14T11:59:54.107Z,7.60
2022-09-14T12:02:56.924Z,5.03
2022-09-14T12:05:32.617Z,3.33
2022-09-14T12:08:26.696Z,5.40
2022-09-14T12:11:28.726Z,6.78
2022-09-14T12:14:33.277Z,4.88
2022-09-14T12:17:38.264Z,6.78
2022-09-14T12:20:36.509Z,5.25
2022-09-14T12:23:15.047Z,7.55
2022-09-14T12:25:40.775Z,5.40
2022-09-14T12:28:04.584Z,7.88
2022-09-14T12:31:14.945Z,7.40
2022-09-14T12:34:07.782Z,7.97
2022-09-14T12:37:07.535Z,7.78
2022-09-14T12:39:35.008Z,8.85
2022-09-14T12:42:26.748Z,5.22
2022-09-14T12:44:50.411Z,7.05
2022-09-14T12:47:52.038Z,9.52
2022-09-14T12:50:20.034Z,7.60
2022-09-14T12:53:03.279Z,11.80
2022-09-14T12:55:50.937Z,10.20
2022-09-14T12:58:53.972Z,8.05
2022-09-14T13:01:30.251Z,9.05
2022-09-14T13:03:55.810Z,9.10
2022-09-14T13:06:20.489Z,8.43
2022-09-14T13:08:49.674Z,7.93
2022-09-14T13:11:22.700Z,7.00
2022-09-14T13:13:47.546Z,3.92
2022-09-14T13:16:21.786Z,3.05
2022-09-14T13:18:45.516Z,4.80
2022-09-14T13:21:22.385Z,4.97
2022-09-14T13:23:47.606Z,10.65
2022-09-14T13:26:16.205Z,10.13
2022-09-14T13:28:40.485Z,11.60
2022-09-14T13:31:04.798Z,11.15
2022-09-14T13:33:30.674Z,11.40
2022-09-14T13:35:57.191Z,11.88
2022-09-14T13:38:24.347Z,6.70
2022-09-14T13:40:51.618Z,6.25
2022-09-14T13:43:16.852Z,8.38
2022-09-14T13:45:41.189Z,10.30
2022-09-14T13:48:06.691Z,9.45
2022-09-14T13:50:30.357Z,7.43
2022-09-14T13:53:03.508Z,8.15
2022-09-14T13:55:30.026Z,5.82
2022-09-14T13:58:22.337Z,6.53
2022-09-14T14:00:53.904Z,6.97
2022-09-14T14:03:33.603Z,5.95
2022-09-14T14:05:58.307Z,6.93
2022-09-14T14:08:33.224Z,8.15
2022-09-14T14:10:57.823Z,5.40
2022-09-14T14:13:28.403Z,5.10
2022-09-14T14:15:52.237Z,4.88
2022-09-14T14:18:42.360Z,5.72
2022-09-14T14:21:14.875Z,4.53
2022-09-14T14:23:51.321Z,4.20
2022-09-14T14:26:27.946Z,8.23
2022-09-14T14:28:53.259Z,6.25
2022-09-14T14:31:21.736Z,8.80
2022-09-14T14:33:51.139Z,6.97
2022-09-14T14:36:15.257Z,6.63
2022-09-14T14:38:40.748Z,7.13
2022-09-14T14:41:05.108Z,7.15
2022-09-14T14:43:29.404Z,4.90
2022-09-14T14:45:58.121Z,4.35
2022-09-14T14:48:21.647Z,4.30
2022-09-14T14:50:46.555Z,4.75
2022-09-14T14:53:11.187Z,6.35
2022-09-14T14:55:37.514Z,5.15
2022-09-14T14:58:04.234Z,5.30
2022-09-14T15:00:54.513Z,5.05
2022-09-14T15:03:23.060Z,4.13
2022-09-14T15:05:48.754Z,3.55
2022-09-14T15:08:13.672Z,4.57
2022-09-14T15:10:37.663Z,4.80
2022-09-14T15:13:01.441Z,6.28
2022-09-14T15:15:27.409Z,5.15
2022-09-14T15:17:51.102Z,3.53
2022-09-14T15:20:20.041Z,5.03
2022-09-14T15:22:43.842Z,7.75
2022-09-14T15:25:08.614Z,7.30
2022-09-14T15:27:33.271Z,5.95
2022-09-14T15:29:56.699Z,4.57
2022-09-14T15:32:20.423Z,5.10
2022-09-14T15:34:44.121Z,3.70
2022-09-14T15:37:10.562Z,5.50
2022-09-14T15:39:34.085Z,5.70
2022-09-14T15:41:58.203Z,4.25
2022-09-14T15:44:22.061Z,4.03
2022-09-14T15:46:47.050Z,5.47
2022-09-14T15:49:15.155Z,5.55
2022-09-14T15:51:38.808Z,9.75
2022-09-14T15:54:04.271Z,8.00
2022-09-14T15:56:28.093Z,4.38
2022-09-14T15:58:51.522Z,8.40
2022-09-14T16:01:17.373Z,5.78
2022-09-14T16:03:42.714Z,4.90
2022-09-14T16:06:07.269Z,5.22
2022-09-14T16:08:30.770Z,3.47
2022-09-14T16:11:01.101Z,4.80
2022-09-14T16:13:24.692Z,4.50
2022-09-14T16:15:48.301Z,4.57
2022-09-14T16:18:12.030Z,5.88
2022-09-14T16:20:37.207Z,5.70
2022-09-14T16:23:00.772Z,4.88
2022-09-14T16:25:24.277Z,4.90
2022-09-14T16:27:50.079Z,5.07
2022-09-14T16:30:14.829Z,4.80
2022-09-14T16:32:38.986Z,4.35
2022-09-14T16:35:07.281Z,7.50
2022-09-14T16:37:31.571Z,4.50
2022-09-14T16:39:55.622Z,5.97
2022-09-14T16:42:19.371Z,6.35
2022-09-14T16:44:44.449Z,6.38
2022-09-14T16:47:08.837Z,5.78
2022-09-14T16:49:32.569Z,8.82
2022-09-14T16:51:56.665Z,9.55
2022-09-14T16:54:22.300Z,12.52
2022-09-14T16:56:46.790Z,8.77
2022-09-14T16:59:11.894Z,9.23
2022-09-14T17:01:39.397Z,11.00
2022-09-14T17:04:08.280Z,10.57
2022-09-14T17:06:33.576Z,10.90
2022-09-14T17:09:00.563Z,12.07
2022-09-14T17:11:24.855Z,10.02
2022-09-14T17:13:48.812Z,8.45
2022-09-14T17:16:15.024Z,10.32
2022-09-14T17:18:41.613Z,10.98
2022-09-14T17:21:09.034Z,6.93
2022-09-14T17:23:33.493Z,8.60
2022-09-14T17:26:22.533Z,6.15
2022-09-14T17:29:09.036Z,8.38
2022-09-14T17:31:35.557Z,6.88
2022-09-14T17:34:02.672Z,9.38
2022-09-14T17:36:26.327Z,8.00
2022-09-14T17:38:50.507Z,12.10
2022-09-14T17:41:18.296Z,8.60
2022-09-14T17:43:41.966Z,8.02
2022-09-14T17:46:07.989Z,8.45
2022-09-14T17:48:34.987Z,10.18
2022-09-14T17:51:00.077Z,10.60
2022-09-14T17:53:23.774Z,11.65
2022-09-14T17:55:47.376Z,13.95
2022-09-14T17:58:12.901Z,10.90
2022-09-14T18:00:38.881Z,13.27
2022-09-14T18:03:02.549Z,11.50
2022-09-14T18:05:26.377Z,13.65
2022-09-14T18:07:51.735Z,9.63
2022-09-14T18:10:17.637Z,10.98
2022-09-14T18:12:41.204Z,11.25
2022-09-14T18:15:05.958Z,12.32
2022-09-14T18:17:29.598Z,12.23
2022-09-14T18:19:57.820Z,11.43
2022-09-14T18:22:21.275Z,10.20
2022-09-14T18:24:46.249Z,10.95
2022-09-14T18:27:09.711Z,10.45
2022-09-14T18:29:33.768Z,9.80
2022-09-14T18:31:57.817Z,11.23
2022-09-14T18:34:22.573Z,9.27
2022-09-14T18:36:46.195Z,12.88
2022-09-14T18:39:09.970Z,9.70
2022-09-14T18:41:35.263Z,9.57
2022-09-14T18:43:59.704Z,9.75
2022-09-14T18:46:27.625Z,9.85
2022-09-14T18:48:53.009Z,12.90
2022-09-14T18:51:16.731Z,11.68
2022-09-14T18:53:40.493Z,11.00
2022-09-14T18:56:06.271Z,11.63
2022-09-14T18:58:35.130Z,10.48
2022-09-14T19:00:58.739Z,13.70
2022-09-14T19:03:22.307Z,14.80
2022-09-14T19:05:45.957Z,19.98
2022-09-14T19:08:10.181Z,19.23
2022-09-14T19:10:33.682Z,17.30
2022-09-14T19:12:57.127Z,17.30
2022-09-14T19:15:22.033Z,15.35
2022-09-14T19:17:45.571Z,17.45
2022-09-14T19:20:11.072Z,14.20
2022-09-14T19:22:35.556Z,13.15
2022-09-14T19:24:59.553Z,12.48
2022-09-14T19:27:23.092Z,17.92
2022-09-14T19:29:47.204Z,22.73
2022-09-14T19:32:12.344Z,15.68
2022-09-14T19:34:36.395Z,14.85
2022-09-14T19:37:00.460Z,12.88
2022-09-14T19:39:25.237Z,14.35
2022-09-14T19:41:49.078Z,14.57
2022-09-14T19:44:13.444Z,12.55
2022-09-14T19:46:39.467Z,18.42
2022-09-14T19:49:04.695Z,14.07
2022-09-14T19:51:30.401Z,12.45
2022-09-14T19:53:56.867Z,14.02
2022-09-14T19:56:25.449Z,13.43
2022-09-14T19:58:51.372Z,12.27
2022-09-14T20:01:16.055Z,11.88
2022-09-14T20:03:41.058Z,14.77
2022-09-14T20:06:09.290Z,12.35
2022-09-14T20:08:34.545Z,12.00
2022-09-14T20:10:58.071Z,13.88
2022-09-14T20:13:21.956Z,14.45
2022-09-14T20:15:45.596Z,12.38
2022-09-14T20:18:09.435Z,12.98
2022-09-14T20:20:32.912Z,14.45
2022-09-14T20:22:57.888Z,10.57
2022-09-14T20:25:21.449Z,13.15
2022-09-14T20:27:45.162Z,12.65
2022-09-14T20:30:10.886Z,11.63
2022-09-14T20:32:34.541Z,15.07
2022-09-14T20:34:58.132Z,12.82
2022-09-14T20:37:21.671Z,11.52
2022-09-14T20:39:46.714Z,11.45
2022-09-14T20:42:10.239Z,10.90
2022-09-14T20:44:33.854Z,12.85
2022-09-14T20:46:57.330Z,10.20
2022-09-14T20:49:23.891Z,9.93
2022-09-14T20:51:47.693Z,11.02
2022-09-14T20:54:15.176Z,11.13
2022-09-14T20:56:40.954Z,11.60
2022-09-14T20:59:09.599Z,10.70
2022-09-14T21:01:37.489Z,13.40
2022-09-14T21:04:05.038Z,12.20
2022-09-14T21:06:29.283Z,13.73
2022-09-14T21:08:53.166Z,12.85
2022-09-14T21:11:19.568Z,12.05
2022-09-14T21:13:45.190Z,14.35
2022-09-14T21:16:14.894Z,16.67
2022-09-14T21:18:38.728Z,12.95
2022-09-14T21:21:06.816Z,11.23
2022-09-14T21:23:30.461Z,13.07
2022-09-14T21:25:57.309Z,12.40
2022-09-14T21:28:20.769Z,12.82
2022-09-14T21:30:45.894Z,13.70
2022-09-14T21:33:09.499Z,12.75
2022-09-14T21:35:34.287Z,12.95
2022-09-14T21:37:57.762Z,12.00
2022-09-14T21:40:22.250Z,15.90
2022-09-14T21:42:46.588Z,14.50
2022-09-14T21:45:11.844Z,17.42
2022-09-14T21:47:36.927Z,19.38
2022-09-14T21:50:00.417Z,19.77
2022-09-14T21:52:23.896Z,22.17
2022-09-14T21:54:47.422Z,18.92
2022-09-14T21:57:11.007Z,18.75
2022-09-14T21:59:34.467Z,16.38
2022-09-14T22:01:59.155Z,14.25
2022-09-14T22:04:26.907Z,14.05
2022-09-14T22:06:51.454Z,19.27
2022-09-14T22:09:18.132Z,18.38
2022-09-14T22:11:41.694Z,17.15
2022-09-14T22:14:07.669Z,22.33
2022-09-14T22:16:36.240Z,18.08
2022-09-14T22:19:04.044Z,18.15
2022-09-14T22:21:30.316Z,22.05
2022-09-14T22:23:55.916Z,24.17
2022-09-14T22:26:21.058Z,19.20
2022-09-14T22:28:44.767Z,18.88
2022-09-14T22:31:09.775Z,19.02
2022-09-14T22:33:33.807Z,24.30
2022-09-14T22:36:00.392Z,40.95
2022-09-14T22:38:27.320Z,55.10
2022-09-14T22:40:56.425Z,45.28
2022-09-14T22:43:19.870Z,28.27
2022-09-14T22:45:45.571Z,23.33
2022-09-14T22:48:09.006Z,19.33
2022-09-14T22:50:32.570Z,23.55
2022-09-14T22:52:56.042Z,18.35
2022-09-14T22:55:20.931Z,20.83
2022-09-14T22:57:44.635Z,17.38
2022-09-14T23:00:10.848Z,16.55
2022-09-14T23:02:34.483Z,17.13
2022-09-14T23:04:57.997Z,20.23
2022-09-14T23:07:21.465Z,22.15
2022-09-14T23:09:44.924Z,19.05
2022-09-14T23:12:10.360Z,21.23
2022-09-14T23:14:34.510Z,18.98
2022-09-14T23:16:57.969Z,16.55
2022-09-14T23:19:22.651Z,18.88
2022-09-14T23:21:46.492Z,18.15
2022-09-14T23:24:10.770Z,20.77
2022-09-14T23:26:34.636Z,21.00
2022-09-14T23:29:03.504Z,22.42
2022-09-14T23:31:27.862Z,19.92
2022-09-14T23:33:53.269Z,17.75
2022-09-14T23:36:16.817Z,18.30
2022-09-14T23:38:40.304Z,20.90
2022-09-14T23:41:04.052Z,20.13
2022-09-14T23:43:27.607Z,20.48
2022-09-14T23:45:52.494Z,24.25
2022-09-14T23:48:16.721Z,19.90
2022-09-14T23:50:40.537Z,19.00
2022-09-14T23:53:04.161Z,22.13
2022-09-14T23:55:28.343Z,20.80
2022-09-14T23:57:51.802Z,19.77
